createdAt,value
2022-11-21T00:01:17.184Z,99422.60
2022-11-21T00:03:50.272Z,99420.60
2022-11-21T00:06:23.860Z,99422.60
2022-11-21T00:08:58.190Z,99423.00
2022-11-21T00:11:30.636Z,99421.20
2022-11-21T00:14:03.391Z,99418.00
2022-11-21T00:16:35.888Z,99413.80
2022-11-21T00:19:08.936Z,99418.40
2022-11-21T00:21:41.352Z,99415.20
2022-11-21T00:24:15.831Z,99410.20
2022-11-21T00:26:48.456Z,99406.00
2022-11-21T00:29:20.954Z,99402.40
2022-11-21T00:31:53.516Z,99404.20
2022-11-21T00:34:26.160Z,99399.20
2022-11-21T00:36:58.831Z,99399.40
2022-11-21T00:39:31.541Z,99394.80
2022-11-21T00:42:04.198Z,99402.80
2022-11-21T00:44:36.669Z,99396.60
2022-11-21T00:47:09.180Z,99397.40
2022-11-21T00:49:41.809Z,99387.80
2022-11-21T00:52:14.330Z,99390.60
2022-11-21T00:54:46.900Z,99389.40
2022-11-21T00:57:19.453Z,99394.00
2022-11-21T00:59:52.425Z,99395.80
2022-11-21T01:02:25.109Z,99385.40
2022-11-21T01:04:57.597Z,99389.80
2022-11-21T01:07:30.127Z,99381.20
2022-11-21T01:10:02.610Z,99380.20
2022-11-21T01:12:35.256Z,99374.80
2022-11-21T01:15:09.849Z,99363.60
2022-11-21T01:17:42.668Z,99350.80
2022-11-21T01:20:15.846Z,99339.60
2022-11-21T01:22:48.328Z,99336.80
2022-11-21T01:25:21.338Z,99340.40
2022-11-21T01:27:53.766Z,99348.60
2022-11-21T01:30:26.187Z,99342.60
2022-11-21T01:32:58.695Z,99338.80
2022-11-21T01:35:31.211Z,99338.40
2022-11-21T01:38:03.798Z,99333.60
2022-11-21T01:40:41.771Z,99339.00
2022-11-21T01:43:17.713Z,99337.40
2022-11-21T01:45:59.776Z,99334.60
2022-11-21T01:48:39.492Z,99326.20
2022-11-21T01:51:18.793Z,99323.80
2022-11-21T01:53:57.614Z,99315.00
2022-11-21T01:56:35.112Z,99307.40
2022-11-21T01:59:08.979Z,99314.80
2022-11-21T02:01:41.899Z,99320.80
2022-11-21T02:04:14.392Z,99311.40
2022-11-21T02:06:47.310Z,99306.00
2022-11-21T02:09:20.374Z,99298.00
2022-11-21T02:11:59.683Z,99294.00
2022-11-21T02:14:32.842Z,99293.00
2022-11-21T02:17:08.776Z,99290.40
2022-11-21T02:19:52.831Z,99300.60
2022-11-21T02:22:35.145Z,99302.00
2022-11-21T02:25:13.439Z,99294.80
2022-11-21T02:27:46.502Z,99283.20
2022-11-21T02:30:20.028Z,99275.60
2022-11-21T02:32:52.619Z,99267.60
2022-11-21T02:35:25.410Z,99273.40
2022-11-21T02:38:01.542Z,99261.00
2022-11-21T02:40:38.680Z,99261.00
2022-11-21T02:43:16.147Z,99261.00
2022-11-21T02:45:49.497Z,99248.60
2022-11-21T02:48:22.119Z,99243.00
2022-11-21T02:50:54.686Z,99237.20
2022-11-21T02:53:27.170Z,99233.80
2022-11-21T02:55:59.839Z,99225.20
2022-11-21T02:58:32.718Z,99217.80
2022-11-21T03:01:05.290Z,99220.00
2022-11-21T03:03:37.755Z,99222.00
2022-11-21T03:06:10.389Z,99219.20
2022-11-21T03:08:42.862Z,99219.00
2022-11-21T03:11:15.341Z,99212.60
2022-11-21T03:13:47.792Z,99214.20
2022-11-21T03:16:20.337Z,99202.60
2022-11-21T03:18:52.743Z,99195.00
2022-11-21T03:21:25.237Z,99190.60
2022-11-21T03:23:57.669Z,99192.80
2022-11-21T03:26:30.919Z,99191.40
2022-11-21T03:29:03.920Z,99189.40
2022-11-21T03:31:36.649Z,99181.40
2022-11-21T03:34:09.387Z,99170.40
2022-11-21T03:36:42.034Z,99164.00
2022-11-21T03:39:14.570Z,99159.40
2022-11-21T03:41:47.151Z,99158.80
2022-11-21T03:44:19.641Z,99148.00
2022-11-21T03:46:52.206Z,99147.60
2022-11-21T03:49:24.661Z,99142.20
2022-11-21T03:51:57.152Z,99138.00
2022-11-21T03:54:29.816Z,99123.40
2022-11-21T03:57:02.712Z,99124.80
2022-11-21T03:59:35.100Z,99129.40
2022-11-21T04:02:09.008Z,99122.20
2022-11-21T04:04:41.609Z,99118.40
2022-11-21T04:07:14.122Z,99117.00
2022-11-21T04:09:46.598Z,99110.40
2022-11-21T04:12:19.060Z,99102.80
2022-11-21T04:14:51.535Z,99108.40
2022-11-21T04:17:23.953Z,99109.80
2022-11-21T04:19:56.482Z,99108.80
2022-11-21T04:22:28.918Z,99111.00
2022-11-21T04:25:01.317Z,99106.60
2022-11-21T04:27:33.755Z,99100.00
2022-11-21T04:30:07.555Z,99096.00
2022-11-21T04:32:40.084Z,99094.00
2022-11-21T04:35:13.256Z,99088.00
2022-11-21T04:37:45.796Z,99081.80
2022-11-21T04:40:19.459Z,99074.60
2022-11-21T04:42:52.127Z,99067.40
2022-11-21T04:45:24.587Z,99062.00
2022-11-21T04:47:57.141Z,99057.00
2022-11-21T04:50:29.601Z,99053.20
2022-11-21T04:53:02.085Z,99054.20
2022-11-21T04:55:35.985Z,99050.00
2022-11-21T04:58:08.674Z,99060.60
2022-11-21T05:00:41.156Z,99057.80
2022-11-21T05:03:13.727Z,99054.00
2022-11-21T05:05:46.268Z,99052.60
2022-11-21T05:08:18.818Z,99054.00
2022-11-21T05:11:09.018Z,99042.80
2022-11-21T05:13:41.542Z,99036.80
2022-11-21T05:16:14.046Z,99031.20
2022-11-21T05:18:46.653Z,99027.20
2022-11-21T05:21:19.110Z,99029.40
2022-11-21T05:23:51.608Z,99027.00
2022-11-21T05:26:24.071Z,99023.80
2022-11-21T05:28:56.616Z,99017.40
2022-11-21T05:31:29.034Z,99010.60
2022-11-21T05:34:01.794Z,99012.40
2022-11-21T05:36:34.347Z,99007.40
2022-11-21T05:39:07.012Z,99000.20
2022-11-21T05:41:39.707Z,98991.80
2022-11-21T05:44:12.377Z,98986.60
2022-11-21T05:46:45.019Z,98984.60
2022-11-21T05:49:18.976Z,98983.20
2022-11-21T05:51:51.462Z,98980.40
2022-11-21T05:54:24.042Z,98976.00
2022-11-21T05:56:56.607Z,98972.80
2022-11-21T05:59:29.171Z,98970.40
2022-11-21T06:02:19.079Z,98963.40
2022-11-21T06:04:51.631Z,98968.00
2022-11-21T06:07:24.207Z,98963.60
2022-11-21T06:09:56.914Z,98965.20
2022-11-21T06:12:29.419Z,98966.60
2022-11-21T06:15:01.919Z,98965.00
2022-11-21T06:17:34.971Z,98956.00
2022-11-21T06:20:09.446Z,98958.20
2022-11-21T06:22:41.996Z,98962.80
2022-11-21T06:25:14.986Z,98959.80
2022-11-21T06:27:47.528Z,98956.00
2022-11-21T06:30:22.335Z,98947.40
2022-11-21T06:32:55.091Z,98943.00
2022-11-21T06:35:27.603Z,98944.20
2022-11-21T06:38:00.490Z,98938.00
2022-11-21T06:40:33.047Z,98941.00
2022-11-21T06:43:05.583Z,98945.40
2022-11-21T06:45:38.035Z,98945.20
2022-11-21T06:48:11.212Z,98950.60
2022-11-21T06:50:44.031Z,98947.40
2022-11-21T06:53:16.547Z,98948.40
2022-11-21T06:55:49.054Z,98946.60
2022-11-21T06:58:23.635Z,98949.60
2022-11-21T07:00:56.466Z,98944.80
2022-11-21T07:03:28.952Z,98944.40
2022-11-21T07:06:02.827Z,98942.80
2022-11-21T07:08:37.711Z,98941.80
2022-11-21T07:11:29.039Z,98939.80
2022-11-21T07:14:06.256Z,98945.20
2022-11-21T07:16:41.418Z,98945.80
2022-11-21T07:19:14.182Z,98945.40
2022-11-21T07:21:46.652Z,98938.80
2022-11-21T07:24:19.229Z,98936.00
2022-11-21T07:26:51.823Z,98939.40
2022-11-21T07:29:24.630Z,98939.20
2022-11-21T07:31:57.260Z,98946.00
2022-11-21T07:34:29.708Z,98939.60
2022-11-21T07:37:05.151Z,98941.60
2022-11-21T07:39:37.863Z,98940.80
2022-11-21T07:42:10.377Z,98940.40
2022-11-21T07:44:42.845Z,98937.40
2022-11-21T07:47:15.492Z,98934.20
2022-11-21T07:49:48.184Z,98938.20
2022-11-21T07:52:21.019Z,98938.40
2022-11-21T07:54:53.834Z,98931.60
2022-11-21T07:57:27.284Z,98930.80
2022-11-21T07:59:59.704Z,98929.60
2022-11-21T08:02:32.486Z,98929.00
2022-11-21T08:05:05.165Z,98927.00
2022-11-21T08:07:37.697Z,98924.40
2022-11-21T08:10:11.452Z,98925.20
2022-11-21T08:12:44.163Z,98922.20
2022-11-21T08:15:16.781Z,98924.60
2022-11-21T08:17:49.313Z,98921.00
2022-11-21T08:20:21.993Z,98924.60
2022-11-21T08:22:54.457Z,98923.40
2022-11-21T08:25:27.285Z,98927.00
2022-11-21T08:28:02.935Z,98925.00
2022-11-21T08:30:36.420Z,98927.40
2022-11-21T08:33:09.420Z,98927.20
2022-11-21T08:35:42.353Z,98929.40
2022-11-21T08:38:14.853Z,98933.80
2022-11-21T08:40:47.419Z,98931.60
2022-11-21T08:43:19.935Z,98926.80
2022-11-21T08:45:52.411Z,98932.80
2022-11-21T08:48:24.934Z,98930.20
2022-11-21T08:50:59.460Z,98932.40
2022-11-21T08:53:31.976Z,98932.60
2022-11-21T08:56:04.776Z,98930.40
2022-11-21T08:58:37.302Z,98929.00
2022-11-21T09:01:09.842Z,98928.80
2022-11-21T09:03:42.383Z,98925.80
2022-11-21T09:06:14.923Z,98929.60
2022-11-21T09:08:47.491Z,98928.20
2022-11-21T09:11:20.169Z,98936.20
2022-11-21T09:14:06.677Z,98935.20
2022-11-21T09:17:01.812Z,98937.80
2022-11-21T09:19:34.972Z,98943.40
2022-11-21T09:22:07.526Z,98937.60
2022-11-21T09:24:40.066Z,98932.20
2022-11-21T09:27:12.578Z,98930.20
2022-11-21T09:29:51.075Z,98932.40
2022-11-21T09:32:26.799Z,98934.20
2022-11-21T09:34:59.278Z,98934.00
2022-11-21T09:37:32.054Z,98933.60
2022-11-21T09:40:07.319Z,98935.40
2022-11-21T09:43:04.432Z,98937.60
2022-11-21T09:45:43.292Z,98939.20
2022-11-21T09:48:22.732Z,98935.80
2022-11-21T09:51:00.263Z,98931.20
2022-11-21T09:53:36.112Z,98928.20
2022-11-21T09:56:12.376Z,98928.20
2022-11-21T09:58:50.194Z,98931.60
2022-11-21T10:01:22.741Z,98941.60
2022-11-21T10:03:55.575Z,98941.00
2022-11-21T10:06:31.929Z,98949.80
2022-11-21T10:09:16.370Z,98940.80
2022-11-21T10:12:16.056Z,98942.40
2022-11-21T10:15:02.339Z,98939.60
2022-11-21T10:17:45.609Z,98943.00
2022-11-21T10:20:49.473Z,98927.20
2022-11-21T10:23:42.967Z,98925.40
2022-11-21T10:26:31.118Z,98925.40
2022-11-21T10:29:10.512Z,98926.00
2022-11-21T10:31:44.494Z,98927.20
2022-11-21T10:34:20.466Z,98924.20
2022-11-21T10:36:59.036Z,98918.00
2022-11-21T10:39:38.667Z,98918.60
2022-11-21T10:42:27.685Z,98914.80
2022-11-21T10:45:18.584Z,98920.40
2022-11-21T10:47:52.896Z,98922.40
2022-11-21T10:50:45.248Z,98924.40
2022-11-21T10:53:39.840Z,98921.20
2022-11-21T10:56:16.015Z,98923.40
2022-11-21T10:58:51.237Z,98921.00
2022-11-21T11:01:31.493Z,98921.20
2022-11-21T11:04:27.869Z,98918.20
2022-11-21T11:07:21.924Z,98919.40
2022-11-21T11:10:14.731Z,98923.20
2022-11-21T11:13:30.924Z,98931.80
2022-11-21T11:16:07.925Z,98927.80
2022-11-21T11:18:47.123Z,98931.00
2022-11-21T11:21:23.279Z,98929.20
2022-11-21T11:24:07.709Z,98934.60
2022-11-21T11:26:53.610Z,98933.60
2022-11-21T11:29:27.866Z,98936.00
2022-11-21T11:32:04.513Z,98938.60
2022-11-21T11:34:50.932Z,98942.60
2022-11-21T11:37:39.812Z,98945.40
2022-11-21T11:40:31.075Z,98943.60
2022-11-21T11:43:43.795Z,98942.80
2022-11-21T11:47:01.052Z,98944.40
2022-11-21T11:49:55.879Z,98943.00
2022-11-21T11:52:35.115Z,98946.80
2022-11-21T11:55:18.238Z,98948.40
2022-11-21T11:57:54.161Z,98952.20
2022-11-21T12:00:36.485Z,98947.40
2022-11-21T12:03:19.861Z,98947.20
2022-11-21T12:06:09.159Z,98955.80
2022-11-21T12:08:51.817Z,98956.20
2022-11-21T12:11:53.357Z,98951.00
2022-11-21T12:15:03.001Z,98959.60
2022-11-21T12:17:42.961Z,98966.80
2022-11-21T12:20:24.007Z,98969.20
2022-11-21T12:22:57.908Z,98973.00
2022-11-21T12:25:36.292Z,98981.20
2022-11-21T12:28:22.538Z,98989.20
2022-11-21T12:31:10.618Z,98992.60
2022-11-21T12:33:52.712Z,99003.40
2022-11-21T12:36:40.821Z,99007.60
2022-11-21T12:39:48.168Z,99008.80
2022-11-21T12:42:47.170Z,99017.20
2022-11-21T12:45:33.648Z,99024.60
2022-11-21T12:48:41.078Z,99026.00
2022-11-21T12:52:00.204Z,99023.60
2022-11-21T12:54:58.449Z,99030.00
2022-11-21T12:57:43.211Z,99031.20
2022-11-21T13:00:26.398Z,99031.80
2022-11-21T13:03:27.562Z,99037.40
2022-11-21T13:06:02.149Z,99040.40
2022-11-21T13:08:39.355Z,99037.80
2022-11-21T13:11:38.436Z,99038.80
2022-11-21T13:14:20.048Z,99045.40
2022-11-21T13:17:04.659Z,99047.40
2022-11-21T13:19:51.675Z,99049.40
2022-11-21T13:23:01.833Z,99053.80
2022-11-21T13:25:48.110Z,99058.20
2022-11-21T13:28:40.357Z,99060.40
2022-11-21T13:31:34.508Z,99059.60
2022-11-21T13:34:27.794Z,99071.20
2022-11-21T13:37:03.787Z,99073.00
2022-11-21T13:39:40.739Z,99072.40
2022-11-21T13:42:37.338Z,99070.00
2022-11-21T13:45:45.221Z,99077.60
2022-11-21T13:48:52.752Z,99078.00
2022-11-21T13:51:52.898Z,99087.80
2022-11-21T13:55:05.701Z,99091.00
2022-11-21T13:58:14.760Z,99090.80
2022-11-21T14:01:13.616Z,99097.00
2022-11-21T14:04:33.948Z,99090.80
2022-11-21T14:07:29.203Z,99102.80
2022-11-21T14:10:03.999Z,99110.80
2022-11-21T14:12:44.407Z,99111.20
2022-11-21T14:15:27.378Z,99115.40
2022-11-21T14:18:02.398Z,99121.20
2022-11-21T14:20:49.762Z,99121.80
2022-11-21T14:23:24.554Z,99125.00
2022-11-21T14:26:01.005Z,99124.60
2022-11-21T14:28:36.172Z,99133.20
2022-11-21T14:31:11.098Z,99134.20
2022-11-21T14:33:45.102Z,99134.80
2022-11-21T14:36:21.162Z,99135.00
2022-11-21T14:39:34.765Z,99134.40
2022-11-21T14:41:52.833Z,99135.80
2022-11-21T14:44:26.304Z,99136.60
2022-11-21T14:47:25.136Z,99141.00
2022-11-21T14:50:07.066Z,99146.40
2022-11-21T14:52:40.178Z,99151.40
2022-11-21T14:55:30.594Z,99146.20
2022-11-21T14:58:06.824Z,99155.20
2022-11-21T15:03:31.969Z,99156.80
2022-11-21T15:06:08.284Z,99152.60
2022-11-21T15:09:33.281Z,99150.20
2022-11-21T15:11:40.063Z,99146.60
2022-11-21T15:14:24.749Z,99145.80
2022-11-21T15:16:59.672Z,99146.60
2022-11-21T15:19:33.831Z,99147.60
2022-11-21T15:22:07.195Z,99146.40
2022-11-21T15:24:43.458Z,99145.00
2022-11-21T15:27:36.762Z,99151.60
2022-11-21T15:30:28.024Z,99157.00
2022-11-21T15:33:13.020Z,99166.20
2022-11-21T15:35:57.369Z,99169.00
2022-11-21T15:38:42.304Z,99173.40
2022-11-21T15:41:33.028Z,99175.80
2022-11-21T15:44:25.301Z,99178.20
2022-11-21T15:46:57.704Z,99175.60
2022-11-21T15:49:33.788Z,99181.00
2022-11-21T15:52:13.458Z,99178.80
2022-11-21T15:54:47.363Z,99176.00
2022-11-21T15:57:22.157Z,99181.40
2022-11-21T15:59:55.275Z,99181.80
2022-11-21T16:02:27.848Z,99187.40
2022-11-21T16:05:00.364Z,99185.60
2022-11-21T16:07:33.456Z,99192.80
2022-11-21T16:10:09.005Z,99189.80
2022-11-21T16:12:47.122Z,99189.20
2022-11-21T16:15:19.982Z,99186.60
2022-11-21T16:17:54.103Z,99188.40
2022-11-21T16:20:26.706Z,99184.60
2022-11-21T16:22:59.456Z,99189.00
2022-11-21T16:25:32.481Z,99180.60
2022-11-21T16:28:07.284Z,99185.20
2022-11-21T16:30:43.368Z,99184.20
2022-11-21T16:33:15.840Z,99183.00
2022-11-21T16:35:49.987Z,99181.40
2022-11-21T16:38:22.852Z,99182.60
2022-11-21T16:41:00.272Z,99183.80
2022-11-21T16:43:33.119Z,99185.40
2022-11-21T16:46:10.947Z,99178.40
2022-11-21T16:48:43.876Z,99174.40
2022-11-21T16:51:18.716Z,99172.00
2022-11-21T16:53:52.184Z,99176.40
2022-11-21T16:56:24.695Z,99177.60
2022-11-21T16:58:57.429Z,99178.60
2022-11-21T17:01:30.649Z,99180.80
2022-11-21T17:04:03.439Z,99182.00
2022-11-21T17:06:35.946Z,99184.60
2022-11-21T17:09:08.784Z,99181.60
2022-11-21T17:11:41.252Z,99178.60
2022-11-21T17:14:15.096Z,99184.00
2022-11-21T17:16:48.965Z,99181.60
2022-11-21T17:19:22.240Z,99189.00
2022-11-21T17:21:55.173Z,99189.40
2022-11-21T17:24:28.032Z,99200.60
2022-11-21T17:27:02.697Z,99204.00
2022-11-21T17:29:35.285Z,99203.60
2022-11-21T17:32:08.262Z,99198.40
2022-11-21T17:34:41.041Z,99197.00
2022-11-21T17:37:13.690Z,99195.60
2022-11-21T17:39:46.193Z,99195.20
2022-11-21T17:42:18.626Z,99201.40
2022-11-21T17:44:51.350Z,99204.60
2022-11-21T17:47:23.931Z,99202.80
2022-11-21T17:49:58.975Z,99191.40
2022-11-21T17:52:33.678Z,99192.20
2022-11-21T17:55:07.054Z,99198.80
2022-11-21T17:57:39.644Z,99201.80
2022-11-21T18:00:15.667Z,99202.60
2022-11-21T18:02:48.191Z,99206.60
2022-11-21T18:05:20.775Z,99216.60
2022-11-21T18:07:53.236Z,99224.20
2022-11-21T18:10:42.812Z,99220.60
2022-11-21T18:13:16.126Z,99217.40
2022-11-21T18:15:48.868Z,99222.60
2022-11-21T18:18:21.618Z,99216.20
2022-11-21T18:20:54.409Z,99214.60
2022-11-21T18:23:28.597Z,99213.00
2022-11-21T18:26:06.364Z,99210.80
2022-11-21T18:28:38.997Z,99205.40
2022-11-21T18:31:13.498Z,99211.80
2022-11-21T18:33:49.315Z,99207.40
2022-11-21T18:36:22.648Z,99206.40
2022-11-21T18:39:02.963Z,99204.60
2022-11-21T18:41:38.950Z,99199.80
2022-11-21T18:44:20.095Z,99205.00
2022-11-21T18:46:54.317Z,99211.40
2022-11-21T18:49:27.112Z,99206.80
2022-11-21T18:51:59.909Z,99212.20
2022-11-21T18:54:32.492Z,99208.40
2022-11-21T18:57:05.205Z,99207.60
2022-11-21T18:59:37.893Z,99202.40
2022-11-21T19:02:12.144Z,99202.40
2022-11-21T19:04:45.864Z,99203.60
2022-11-21T19:07:18.592Z,99203.20
2022-11-21T19:09:51.279Z,99197.40
2022-11-21T19:12:23.830Z,99191.20
2022-11-21T19:14:56.351Z,99189.60
2022-11-21T19:17:28.838Z,99189.80
2022-11-21T19:20:01.440Z,99198.00
2022-11-21T19:22:34.010Z,99199.00
2022-11-21T19:25:07.902Z,99201.60
2022-11-21T19:27:40.478Z,99196.80
2022-11-21T19:30:15.208Z,99201.40
2022-11-21T19:32:47.851Z,99203.40
2022-11-21T19:35:20.748Z,99200.80
2022-11-21T19:37:53.444Z,99205.40
2022-11-21T19:40:49.823Z,99198.00
2022-11-21T19:43:23.174Z,99204.80
2022-11-21T19:45:58.139Z,99200.80
2022-11-21T19:48:31.008Z,99196.60
2022-11-21T19:51:05.074Z,99194.60
2022-11-21T19:53:40.350Z,99188.20
2022-11-21T19:56:15.929Z,99189.40
2022-11-21T19:58:49.287Z,99192.40
2022-11-21T20:01:23.989Z,99200.60
2022-11-21T20:04:00.037Z,99200.00
2022-11-21T20:06:34.859Z,99197.60
2022-11-21T20:09:10.276Z,99198.20
2022-11-21T20:11:44.483Z,99195.80
2022-11-21T20:14:21.853Z,99202.80
2022-11-21T20:16:55.785Z,99207.00
2022-11-21T20:19:29.720Z,99215.60
2022-11-21T20:22:02.326Z,99218.00
2022-11-21T20:24:39.932Z,99217.60
2022-11-21T20:27:14.183Z,99224.20
2022-11-21T20:29:46.721Z,99223.20
2022-11-21T20:32:19.302Z,99215.60
2022-11-21T20:34:51.924Z,99214.40
2022-11-21T20:37:24.751Z,99222.20
2022-11-21T20:39:57.250Z,99227.00
2022-11-21T20:42:29.686Z,99222.20
2022-11-21T20:47:54.588Z,99220.40
2022-11-21T20:51:14.748Z,99217.00
2022-11-21T20:53:50.685Z,99217.80
2022-11-21T20:56:13.939Z,99212.80
2022-11-21T20:58:48.298Z,99217.20
2022-11-21T21:01:24.035Z,99217.40
2022-11-21T21:03:56.721Z,99209.00
2022-11-21T21:06:30.947Z,99203.40
2022-11-21T21:09:03.433Z,99205.60
2022-11-21T21:11:53.095Z,99211.60
2022-11-21T21:14:26.565Z,99208.20
2022-11-21T21:16:59.076Z,99199.20
2022-11-21T21:19:31.969Z,99192.60
2022-11-21T21:22:05.226Z,99187.20
2022-11-21T21:24:37.798Z,99187.80
2022-11-21T21:27:10.329Z,99180.60
2022-11-21T21:29:42.886Z,99175.00
2022-11-21T21:32:15.523Z,99176.60
2022-11-21T21:34:48.150Z,99170.00
2022-11-21T21:37:22.017Z,99168.20
2022-11-21T21:39:54.810Z,99163.00
2022-11-21T21:42:27.239Z,99164.40
2022-11-21T21:45:02.539Z,99161.60
2022-11-21T21:47:35.071Z,99157.40
2022-11-21T21:50:15.499Z,99156.80
2022-11-21T21:52:48.325Z,99153.20
2022-11-21T21:55:20.832Z,99153.60
2022-11-21T21:57:53.388Z,99153.20
2022-11-21T22:00:25.904Z,99149.60
2022-11-21T22:02:58.350Z,99146.60
2022-11-21T22:05:30.926Z,99148.00
2022-11-21T22:08:03.928Z,99150.20
2022-11-21T22:10:36.793Z,99153.60
2022-11-21T22:13:09.238Z,99146.20
2022-11-21T22:15:41.748Z,99145.20
2022-11-21T22:18:14.209Z,99145.60
2022-11-21T22:20:46.709Z,99145.40
2022-11-21T22:23:19.312Z,99139.00
2022-11-21T22:25:55.741Z,99134.40
2022-11-21T22:28:29.839Z,99135.80
2022-11-21T22:31:02.802Z,99141.00
2022-11-21T22:33:35.850Z,99143.20
2022-11-21T22:36:12.180Z,99143.40
2022-11-21T22:38:45.251Z,99142.20
2022-11-21T22:41:20.615Z,99146.60
2022-11-21T22:43:56.704Z,99144.20
2022-11-21T22:46:30.684Z,99142.60
2022-11-21T22:49:03.806Z,99145.80
2022-11-21T22:51:36.556Z,99147.60
2022-11-21T22:54:09.042Z,99142.80
2022-11-21T22:56:41.677Z,99142.60
2022-11-21T22:59:16.331Z,99142.00
2022-11-21T23:01:48.793Z,99142.00
2022-11-21T23:04:21.372Z,99143.60
2022-11-21T23:06:53.931Z,99147.40
2022-11-21T23:09:26.773Z,99150.20
2022-11-21T23:11:59.505Z,99143.40
2022-11-21T23:14:31.980Z,99140.20
2022-11-21T23:17:04.438Z,99140.00
2022-11-21T23:19:37.140Z,99143.40
2022-11-21T23:22:09.701Z,99140.40
2022-11-21T23:24:42.207Z,99140.60
2022-11-21T23:27:14.683Z,99140.00
2022-11-21T23:29:47.172Z,99147.20
2022-11-21T23:32:19.650Z,99159.40
2022-11-21T23:34:52.172Z,99167.80
2022-11-21T23:37:24.589Z,99169.20
2022-11-21T23:39:57.046Z,99173.20
2022-11-21T23:42:29.552Z,99164.80
2022-11-21T23:45:01.989Z,99149.60
2022-11-21T23:47:34.473Z,99151.20
2022-11-21T23:50:08.215Z,99156.20
2022-11-21T23:52:41.145Z,99151.40
2022-11-21T23:55:14.235Z,99143.00
2022-11-21T23:57:49.176Z,99151.60
